Time;durP1;ratioP1;P1;durP2;ratioP2;P2;SDS_P1;SDS_P2;PMS_P1;PMS_P2;Temp;Humidity;BMP_temperature;BMP_pressure;BME280_temperature;BME280_humidity;BME280_pressure;Samples;Min_cycle;Max_cycle;Signal;HPM_P1;HPM_P2
2023/05/24 00:01:36;;;;;;;16.83;6.07;;;9.60;98.10;;;;;;5072799;28;20179;-72
2023/05/24 00:04:02;;;;;;;14.97;6.27;;;9.50;99.90;;;;;;5072718;28;20691;-72
2023/05/24 00:06:28;;;;;;;15.17;6.33;;;9.50;99.90;;;;;;5072572;28;20251;-72
2023/05/24 00:08:54;;;;;;;19.23;7.00;;;9.50;99.90;;;;;;5072682;28;20160;-73
2023/05/24 00:11:21;;;;;;;17.87;6.90;;;9.50;99.90;;;;;;5072863;28;20223;-73
2023/05/24 00:13:47;;;;;;;21.03;6.87;;;9.40;99.90;;;;;;5076904;28;20186;-73
2023/05/24 00:16:13;;;;;;;17.73;7.40;;;9.40;99.90;;;;;;5076855;28;20190;-73
2023/05/24 00:18:39;;;;;;;17.43;6.77;;;9.40;99.90;;;;;;5076697;28;20203;-73
2023/05/24 00:21:08;;;;;;;14.00;6.07;;;9.40;99.90;;;;;;5076541;28;20259;-73
2023/05/24 00:23:35;;;;;;;16.20;4.10;;;9.40;99.90;;;;;;5076588;28;20260;-73
2023/05/24 00:26:02;;;;;;;12.33;4.70;;;9.40;99.90;;;;;;5076603;28;20192;-71
2023/05/24 00:28:27;;;;;;;13.17;4.07;;;9.40;99.90;;;;;;5076557;28;20185;-72
2023/05/24 00:30:53;;;;;;;19.23;6.30;;;9.30;99.90;;;;;;5076625;28;20255;-71
2023/05/24 00:33:22;;;;;;;19.50;6.27;;;9.30;99.90;;;;;;5074895;28;20748;-73
2023/05/24 00:35:48;;;;;;;14.67;5.73;;;9.30;99.90;;;;;;5076515;28;20255;-72
2023/05/24 00:38:14;;;;;;;17.77;7.23;;;9.30;99.90;;;;;;5076292;28;20204;-73
2023/05/24 00:40:40;;;;;;;16.33;5.70;;;9.20;99.90;;;;;;5076330;28;20323;-73
2023/05/24 00:43:05;;;;;;;14.40;4.60;;;9.20;99.90;;;;;;5075207;28;20214;-72
2023/05/24 00:45:31;;;;;;;16.67;6.50;;;9.20;99.90;;;;;;5076224;28;20217;-72
2023/05/24 00:47:56;;;;;;;10.50;4.97;;;9.20;99.90;;;;;;5075719;28;20222;-72
2023/05/24 00:50:23;;;;;;;19.77;4.87;;;9.20;99.90;;;;;;5076223;28;20176;-72
2023/05/24 00:52:50;;;;;;;15.83;4.97;;;9.20;99.90;;;;;;5076121;28;20267;-72
2023/05/24 00:55:16;;;;;;;20.03;5.17;;;9.10;99.90;;;;;;5076036;28;20180;-73
2023/05/24 00:57:41;;;;;;;23.60;5.60;;;9.20;99.90;;;;;;5074596;28;20212;-73
2023/05/24 01:00:08;;;;;;;12.53;4.20;;;9.20;99.90;;;;;;5076109;28;20183;-72
2023/05/24 01:02:34;;;;;;;13.70;4.37;;;9.20;99.90;;;;;;5075648;28;20245;-73
2023/05/24 01:04:59;;;;;;;13.37;4.20;;;9.20;99.90;;;;;;5075854;28;20197;-73
2023/05/24 01:07:47;;;;;;;16.50;4.93;;;9.10;99.90;;;;;;5075733;28;20168;-71
2023/05/24 01:10:39;;;;;;;17.80;5.00;;;9.10;99.90;;;;;;5074472;28;20176;-71
2023/05/24 01:13:11;;;;;;;14.93;5.80;;;9.10;99.90;;;;;;5075660;28;20219;-73
2023/05/24 01:15:52;;;;;;;14.57;4.27;;;9.10;99.90;;;;;;5075690;28;20218;-71
2023/05/24 01:18:33;;;;;;;15.87;5.23;;;9.00;99.90;;;;;;5074996;28;20290;-73
2023/05/24 01:21:11;;;;;;;14.60;4.80;;;9.00;99.90;;;;;;5075520;28;20168;-71
2023/05/24 01:24:13;;;;;;;14.70;5.03;;;9.00;99.90;;;;;;5074356;28;20169;-73
2023/05/24 01:26:56;;;;;;;12.77;4.10;;;9.00;99.90;;;;;;5075368;28;20183;-72
2023/05/24 01:29:22;;;;;;;14.90;5.07;;;9.00;99.90;;;;;;5075263;28;20172;-71
2023/05/24 01:31:49;;;;;;;14.77;4.67;;;9.00;99.90;;;;;;5074783;28;20239;-71
2023/05/24 01:34:14;;;;;;;17.97;4.50;;;9.00;99.90;;;;;;5075235;28;20225;-72
2023/05/24 01:36:40;;;;;;;18.00;4.83;;;9.00;99.90;;;;;;5073908;28;20642;-71
2023/05/24 01:39:05;;;;;;;16.90;4.67;;;9.00;99.90;;;;;;5074878;28;20254;-71
2023/05/24 01:41:37;;;;;;;15.83;4.53;;;8.90;99.90;;;;;;5075343;28;20168;-71
2023/05/24 01:44:23;;;;;;;10.20;4.40;;;8.90;99.90;;;;;;5075103;28;20243;-71
2023/05/24 01:46:59;;;;;;;15.80;4.83;;;8.90;99.90;;;;;;5043540;28;20188;-72
2023/05/24 01:49:33;;;;;;;13.73;4.10;;;8.90;99.90;;;;;;5074721;28;20164;-72
2023/05/24 01:52:14;;;;;;;15.03;4.47;;;8.90;99.90;;;;;;5074906;28;20213;-72
2023/05/24 01:54:44;;;;;;;10.27;4.20;;;8.90;99.90;;;;;;5074865;28;20180;-72
2023/05/24 01:57:10;;;;;;;16.93;4.30;;;8.90;99.90;;;;;;5074705;28;20248;-72
2023/05/24 01:59:38;;;;;;;16.30;4.57;;;8.90;99.90;;;;;;5074679;28;20659;-72
2023/05/24 02:02:04;;;;;;;18.60;4.97;;;8.80;99.90;;;;;;5074261;28;20636;-72
2023/05/24 02:04:30;;;;;;;13.03;4.00;;;8.80;99.90;;;;;;5074584;28;20185;-72
2023/05/24 02:06:56;;;;;;;16.93;4.63;;;8.80;99.90;;;;;;5074688;28;20177;-72
2023/05/24 02:09:21;;;;;;;18.23;4.60;;;8.90;99.90;;;;;;5074492;28;20180;-72
2023/05/24 02:11:47;;;;;;;13.17;4.13;;;9.00;99.90;;;;;;5074661;28;20678;-72
2023/05/24 02:14:13;;;;;;;26.77;5.70;;;8.80;99.90;;;;;;5074383;28;20176;-72
2023/05/24 02:16:41;;;;;;;21.40;5.30;;;8.80;99.90;;;;;;5074075;28;20187;-72
2023/05/24 02:19:08;;;;;;;25.70;5.47;;;8.80;99.90;;;;;;5074262;28;20212;-72
2023/05/24 02:21:35;;;;;;;17.80;5.23;;;8.70;99.90;;;;;;5074365;28;20161;-72
2023/05/24 02:24:00;;;;;;;15.43;4.57;;;8.70;99.90;;;;;;5074253;28;20172;-72
2023/05/24 02:26:26;;;;;;;16.07;4.60;;;8.80;99.90;;;;;;5074326;28;20184;-72
2023/05/24 02:28:52;;;;;;;19.47;4.50;;;8.70;99.90;;;;;;5074015;28;20172;-72
2023/05/24 02:31:17;;;;;;;19.57;5.07;;;8.70;99.90;;;;;;5072260;28;20231;-72
2023/05/24 02:33:43;;;;;;;16.90;4.17;;;8.70;99.90;;;;;;5074349;28;20627;-72
2023/05/24 02:36:09;;;;;;;15.87;4.50;;;8.60;99.90;;;;;;5073979;28;20484;-71
2023/05/24 02:38:36;;;;;;;15.37;4.73;;;8.70;99.90;;;;;;5073879;28;20220;-72
2023/05/24 02:41:02;;;;;;;14.87;4.60;;;8.70;99.90;;;;;;5073933;28;20200;-72
2023/05/24 02:43:28;;;;;;;19.00;4.83;;;8.70;99.90;;;;;;5073903;28;20229;-72
2023/05/24 02:45:54;;;;;;;17.83;4.87;;;8.80;99.90;;;;;;5073467;28;20650;-72
2023/05/24 02:48:19;;;;;;;13.73;4.93;;;8.80;99.90;;;;;;5073892;28;20177;-72
2023/05/24 02:50:45;;;;;;;12.17;4.50;;;8.80;99.90;;;;;;5073897;28;20252;-72
2023/05/24 02:53:11;;;;;;;20.23;5.00;;;8.70;99.90;;;;;;5073857;28;20183;-73
2023/05/24 02:55:37;;;;;;;21.43;4.77;;;8.60;99.90;;;;;;5073701;28;20172;-72
2023/05/24 02:58:03;;;;;;;20.67;5.13;;;8.60;99.90;;;;;;5073380;28;20215;-72
2023/05/24 03:00:28;;;;;;;12.53;4.10;;;8.60;99.90;;;;;;5073243;28;20255;-72
2023/05/24 03:02:56;;;;;;;14.17;4.60;;;8.50;99.90;;;;;;5073547;28;20184;-72
2023/05/24 03:05:22;;;;;;;15.93;5.20;;;8.60;99.90;;;;;;5073533;28;20196;-73
2023/05/24 03:07:47;;;;;;;15.50;4.30;;;8.50;99.90;;;;;;5073360;28;20191;-72
2023/05/24 03:10:13;;;;;;;17.47;5.30;;;8.50;99.90;;;;;;5072283;28;20179;-72
2023/05/24 03:12:38;;;;;;;15.97;4.93;;;8.50;99.90;;;;;;5073065;28;20172;-72
2023/05/24 03:15:05;;;;;;;18.70;5.13;;;8.50;99.90;;;;;;5073108;28;20252;-72
2023/05/24 03:17:30;;;;;;;18.67;4.90;;;8.50;99.90;;;;;;5072902;28;20243;-73
2023/05/24 03:19:56;;;;;;;17.53;4.90;;;8.50;99.90;;;;;;5072856;28;20184;-72
2023/05/24 03:22:21;;;;;;;15.17;4.90;;;8.50;99.90;;;;;;5073380;28;20177;-73
2023/05/24 03:24:47;;;;;;;19.00;6.00;;;8.50;99.90;;;;;;5073183;28;20161;-73
2023/05/24 03:27:13;;;;;;;19.77;5.03;;;8.50;99.90;;;;;;5073269;28;20522;-73
2023/05/24 03:29:38;;;;;;;18.80;4.87;;;8.50;99.90;;;;;;5071499;28;20239;-73
2023/05/24 03:32:05;;;;;;;26.30;5.07;;;8.60;99.90;;;;;;5072704;28;20756;-73
2023/05/24 03:34:30;;;;;;;17.07;5.57;;;8.60;99.90;;;;;;5072851;28;20222;-73
2023/05/24 03:36:56;;;;;;;15.53;5.07;;;8.60;99.90;;;;;;5072992;28;20176;-73
2023/05/24 03:39:22;;;;;;;17.93;5.20;;;8.60;99.90;;;;;;5072731;28;20679;-73
2023/05/24 03:41:47;;;;;;;16.63;4.83;;;8.60;99.90;;;;;;5072911;28;20173;-73
2023/05/24 03:44:13;;;;;;;19.97;5.60;;;8.70;99.90;;;;;;5072598;28;20176;-73
2023/05/24 03:46:39;;;;;;;16.63;5.60;;;8.60;99.90;;;;;;5071831;28;20177;-73
2023/05/24 03:49:06;;;;;;;19.00;5.77;;;8.60;99.90;;;;;;5072638;28;20290;-73
2023/05/24 03:51:32;;;;;;;16.90;4.97;;;8.50;99.90;;;;;;5072427;28;20180;-73
2023/05/24 03:53:58;;;;;;;15.67;4.70;;;8.60;99.90;;;;;;5072483;28;20183;-72
2023/05/24 03:56:25;;;;;;;20.30;5.07;;;8.60;99.90;;;;;;5072111;28;20169;-72
2023/05/24 03:58:51;;;;;;;13.77;4.77;;;8.70;99.90;;;;;;5073216;28;20215;-74
2023/05/24 04:01:17;;;;;;;18.80;5.20;;;8.80;99.90;;;;;;5072719;28;20591;-72
2023/05/24 04:03:44;;;;;;;17.47;5.50;;;9.00;99.90;;;;;;5072536;28;20552;-73
2023/05/24 04:06:10;;;;;;;19.67;5.27;;;9.10;99.90;;;;;;5071744;28;20252;-74
2023/05/24 04:08:36;;;;;;;17.37;4.83;;;9.40;99.90;;;;;;5072260;28;20177;-73
2023/05/24 04:11:02;;;;;;;16.20;5.30;;;9.80;99.90;;;;;;5072159;28;20191;-74
2023/05/24 04:13:27;;;;;;;13.40;4.40;;;10.20;99.90;;;;;;5072439;28;20678;-74
2023/05/24 04:15:53;;;;;;;19.23;5.20;;;10.70;99.90;;;;;;5072607;28;20169;-75
2023/05/24 04:18:19;;;;;;;19.30;5.00;;;11.10;99.90;;;;;;5070937;28;20607;-75
2023/05/24 04:20:44;;;;;;;16.03;5.03;;;11.70;99.90;;;;;;5072665;28;20191;-76
2023/05/24 04:23:10;;;;;;;16.07;5.10;;;12.20;69.40;;;;;;5072145;28;20210;-77
2023/05/24 04:25:36;;;;;;;20.50;5.40;;;12.70;45.90;;;;;;5072112;28;20213;-74
2023/05/24 04:28:02;;;;;;;15.67;4.77;;;13.30;26.30;;;;;;5072240;28;20185;-75
2023/05/24 04:30:28;;;;;;;17.33;4.53;;;13.90;1.40;;;;;;5072041;28;20160;-74
2023/05/24 04:32:55;;;;;;;20.03;5.27;;;14.60;1.00;;;;;;5071674;28;20224;-75
2023/05/24 04:35:21;;;;;;;16.00;5.00;;;15.60;1.00;;;;;;5070976;28;20639;-74
2023/05/24 04:37:48;;;;;;;14.27;4.90;;;16.50;1.00;;;;;;5070686;28;20290;-76
2023/05/24 04:40:15;;;;;;;13.90;5.10;;;17.30;1.00;;;;;;5072118;28;20306;-75
2023/05/24 04:42:41;;;;;;;16.40;5.10;;;18.10;1.00;;;;;;5071601;28;20176;-76
2023/05/24 04:45:07;;;;;;;16.70;5.33;;;18.50;99.90;;;;;;5071854;28;20255;-76
2023/05/24 04:47:33;;;;;;;16.45;5.55;;;18.60;99.90;;;;;;5070808;28;20643;-74
2023/05/24 04:49:58;;;;;;;17.52;5.30;;;19.00;1.00;;;;;;5071720;28;20177;-76
2023/05/24 04:52:24;;;;;;;14.13;5.35;;;19.60;99.90;;;;;;5071787;28;20636;-76
2023/05/24 04:54:50;;;;;;;18.25;5.55;;;20.40;99.90;;;;;;5071549;28;20173;-74
2023/05/24 04:57:16;;;;;;;17.88;5.35;;;20.80;1.00;;;;;;5071456;28;20527;-76
2023/05/24 04:59:42;;;;;;;17.10;5.10;;;21.00;99.90;;;;;;5075402;28;20263;-75
2023/05/24 05:02:07;;;;;;;15.70;5.00;;;21.60;1.00;;;;;;5075586;28;20164;-76
2023/05/24 05:04:33;;;;;;;13.95;5.40;;;22.00;1.00;;;;;;5074971;28;20714;-76
2023/05/24 05:06:58;;;;;;;17.85;5.65;;;22.20;1.00;;;;;;5075097;28;20161;-76
2023/05/24 05:09:24;;;;;;;9.50;4.38;;;22.40;99.90;;;;;;5073056;28;20596;-76
2023/05/24 05:11:50;;;;;;;14.48;5.10;;;22.80;99.90;;;;;;5075188;28;20248;-77
2023/05/24 05:14:16;;;;;;;14.25;5.82;;;22.80;53.60;;;;;;5075061;28;20542;-75
2023/05/24 05:16:42;;;;;;;14.90;5.95;;;23.50;1.00;;;;;;5074805;28;20221;-76
2023/05/24 05:19:07;;;;;;;16.35;5.82;;;23.80;1.00;;;;;;5074664;28;20231;-77
2023/05/24 05:21:33;;;;;;;14.30;5.10;;;23.60;1.00;;;;;;5074708;28;20177;-77
2023/05/24 05:24:00;;;;;;;15.68;5.25;;;24.10;1.00;;;;;;5074491;28;20168;-78
2023/05/24 05:26:27;;;;;;;12.85;5.13;;;23.90;1.00;;;;;;5074145;28;20172;-76
2023/05/24 05:28:53;;;;;;;16.38;5.68;;;24.00;1.00;;;;;;5074709;28;20239;-78
2023/05/24 05:31:19;;;;;;;17.00;5.43;;;24.50;1.00;;;;;;5074173;28;20713;-76
2023/05/24 05:33:45;;;;;;;13.48;5.60;;;25.00;1.00;;;;;;5074824;28;20177;-78
2023/05/24 05:36:11;;;;;;;19.58;5.63;;;25.60;99.90;;;;;;5072519;28;20256;-77
2023/05/24 05:38:36;;;;;;;13.65;5.78;;;25.50;99.90;;;;;;5074095;28;20204;-77
2023/05/24 05:41:02;;;;;;;18.17;5.60;;;25.20;99.90;;;;;;5073828;28;20306;-77
2023/05/24 05:43:28;;;;;;;15.32;5.43;;;25.80;99.90;;;;;;5074302;28;20655;-76
2023/05/24 05:45:54;;;;;;;13.35;5.13;;;26.00;99.90;;;;;;5074243;28;20570;-76
2023/05/24 05:48:20;;;;;;;14.80;5.32;;;26.10;99.90;;;;;;5073794;28;20628;-75
2023/05/24 05:50:46;;;;;;;13.68;5.68;;;26.00;99.90;;;;;;5074019;28;20171;-79
2023/05/24 05:53:11;;;;;;;15.95;5.43;;;26.70;99.90;;;;;;5072665;28;20691;-78
2023/05/24 05:55:37;;;;;;;17.60;5.75;;;26.30;99.90;;;;;;5074054;28;20586;-75
2023/05/24 05:58:03;;;;;;;15.30;5.60;;;25.70;99.90;;;;;;5073046;28;20625;-75
2023/05/24 06:00:28;;;;;;;14.82;5.10;;;26.10;99.90;;;;;;5074258;28;20173;-77
2023/05/24 06:02:54;;;;;;;17.35;5.75;;;26.10;99.90;;;;;;5073398;28;20173;-77
2023/05/24 06:05:20;;;;;;;14.68;5.50;;;26.80;99.90;;;;;;5073954;28;20226;-77
2023/05/24 06:07:46;;;;;;;15.52;5.30;;;26.70;99.90;;;;;;5072889;28;20196;-76
2023/05/24 06:10:12;;;;;;;11.30;4.82;;;26.40;99.90;;;;;;5072428;28;20177;-76
2023/05/24 06:12:39;;;;;;;11.73;4.85;;;24.80;99.90;;;;;;5073576;28;20195;-75
2023/05/24 06:15:08;;;;;;;14.70;5.07;;;24.30;1.00;;;;;;5073113;28;20230;-77
2023/05/24 06:17:35;;;;;;;15.45;4.97;;;25.10;99.90;;;;;;5073432;28;20200;-76
2023/05/24 06:20:14;;;;;;;14.13;4.78;;;24.70;99.90;;;;;;5072820;28;20182;-75
2023/05/24 06:22:41;;;;;;;13.63;5.13;;;24.20;1.00;;;;;;5072943;28;20620;-77
2023/05/24 06:25:07;;;;;;;12.55;4.40;;;24.90;1.00;;;;;;5072830;28;20244;-76
2023/05/24 06:27:33;;;;;;;14.55;4.82;;;24.10;1.00;;;;;;5073701;28;20534;-75
2023/05/24 06:29:58;;;;;;;13.57;4.47;;;23.80;1.00;;;;;;5073260;28;20196;-75
2023/05/24 06:32:24;;;;;;;11.27;4.63;;;23.60;1.00;;;;;;5072368;28;20273;-75
2023/05/24 06:34:50;;;;;;;14.15;4.53;;;24.90;99.90;;;;;;5070912;28;20211;-77
2023/05/24 06:37:15;;;;;;;12.75;4.40;;;24.80;99.90;;;;;;5071923;28;20252;-75
2023/05/24 06:39:41;;;;;;;9.30;4.32;;;25.80;99.90;;;;;;5073381;28;20256;-75
2023/05/24 06:42:07;;;;;;;12.95;4.55;;;26.80;99.90;;;;;;5073045;28;20168;-74
2023/05/24 06:44:35;;;;;;;11.90;4.13;;;27.40;99.90;;;;;;5072222;28;20176;-74
2023/05/24 06:47:01;;;;;;;9.70;4.30;;;27.00;99.90;;;;;;5072157;28;20535;-74
2023/05/24 06:49:27;;;;;;;13.82;4.07;;;27.40;99.90;;;;;;5072513;28;20180;-75
2023/05/24 06:51:52;;;;;;;11.48;4.38;;;27.50;99.90;;;;;;5072213;28;20168;-75
2023/05/24 06:54:18;;;;;;;8.40;3.80;;;27.10;99.90;;;;;;5072625;28;20169;-75
2023/05/24 06:56:44;;;;;;;10.88;4.40;;;26.40;99.90;;;;;;5072738;28;20179;-75
2023/05/24 06:59:09;;;;;;;10.45;4.35;;;27.10;99.90;;;;;;5072232;28;20291;-75
2023/05/24 07:01:38;;;;;;;10.90;4.38;;;26.60;99.90;;;;;;5072740;28;20258;-74
2023/05/24 07:04:04;;;;;;;13.90;4.93;;;27.10;99.90;;;;;;5072482;28;20200;-73
2023/05/24 07:06:32;;;;;;;11.77;4.60;;;26.70;99.90;;;;;;5072418;28;20596;-75
2023/05/24 07:08:57;;;;;;;15.20;4.97;;;27.10;99.90;;;;;;5071794;28;20260;-74
2023/05/24 07:11:23;;;;;;;11.25;4.28;;;26.90;99.90;;;;;;5072119;28;20165;-74
2023/05/24 07:13:49;;;;;;;9.20;4.25;;;28.00;99.90;;;;;;5072630;28;20179;-75
2023/05/24 07:16:15;;;;;;;10.18;4.78;;;26.80;99.90;;;;;;5072127;28;20175;-75
2023/05/24 07:18:40;;;;;;;8.52;4.18;;;25.00;99.90;;;;;;5072248;28;20291;-75
2023/05/24 07:21:06;;;;;;;13.15;4.72;;;22.30;1.00;;;;;;5070858;28;20165;-74
2023/05/24 07:23:33;;;;;;;13.90;4.72;;;21.80;1.00;;;;;;5071731;28;20183;-74
2023/05/24 07:25:58;;;;;;;14.23;5.00;;;20.50;99.90;;;;;;5076056;28;20175;-74
2023/05/24 07:28:24;;;;;;;13.13;5.90;;;19.60;1.00;;;;;;5098043;28;20622;-75
2023/05/24 07:30:50;;;;;;;12.52;5.43;;;19.60;1.00;;;;;;5112835;28;20174;-75
2023/05/24 07:33:15;;;;;;;15.30;5.53;;;19.80;99.90;;;;;;5095773;28;20223;-76
2023/05/24 07:35:41;;;;;;;15.85;6.25;;;19.80;1.00;;;;;;5091445;28;20160;-75
2023/05/24 07:38:07;;;;;;;15.57;5.88;;;20.30;1.00;;;;;;5109003;28;20215;-76
2023/05/24 07:40:33;;;;;;;17.05;5.78;;;20.50;99.90;;;;;;5099510;28;20171;-77
2023/05/24 07:42:59;;;;;;;15.88;5.35;;;20.20;1.00;;;;;;5106263;28;20168;-77
2023/05/24 07:45:25;;;;;;;13.48;5.13;;;20.00;99.90;;;;;;5104232;28;20189;-77
2023/05/24 07:47:51;;;;;;;12.25;5.63;;;19.30;1.00;;;;;;5095695;28;20182;-76
2023/05/24 07:50:17;;;;;;;14.82;5.70;;;19.70;1.00;;;;;;5106260;28;20156;-75
2023/05/24 07:52:43;;;;;;;12.65;5.03;;;19.30;99.90;;;;;;5091910;28;20251;-75
2023/05/24 07:55:08;;;;;;;16.92;5.30;;;19.50;99.90;;;;;;5092059;28;20254;-77
2023/05/24 07:57:34;;;;;;;10.70;4.68;;;19.70;99.90;;;;;;5110598;28;20198;-77
2023/05/24 08:00:05;;;;;;;15.77;4.60;;;19.70;1.00;;;;;;5095270;28;20176;-76
2023/05/24 08:02:32;;;;;;;7.35;3.85;;;20.20;99.90;;;;;;5113942;28;20227;-77
2023/05/24 08:04:58;;;;;;;12.98;4.00;;;20.00;1.00;;;;;;5104748;28;20613;-76
2023/05/24 08:07:23;;;;;;;13.55;4.45;;;19.30;99.90;;;;;;5107705;28;20195;-78
2023/05/24 08:09:49;;;;;;;11.35;3.80;;;19.30;99.90;;;;;;5095893;28;20168;-78
2023/05/24 08:12:14;;;;;;;9.95;3.78;;;19.90;22.60;;;;;;5096800;28;20622;-80
2023/05/24 08:14:40;;;;;;;9.88;3.80;;;21.40;1.00;;;;;;5103482;28;20183;-77
2023/05/24 08:17:06;;;;;;;10.57;4.20;;;22.90;1.00;;;;;;5102984;28;20182;-75
2023/05/24 08:19:34;;;;;;;8.48;3.92;;;23.40;1.00;;;;;;5097108;28;20244;-77
2023/05/24 08:22:03;;;;;;;11.98;4.88;;;23.20;1.00;;;;;;5108035;28;20221;-77
2023/05/24 08:24:30;;;;;;;17.67;5.55;;;24.20;1.00;;;;;;5098763;28;20178;-78
2023/05/24 08:26:56;;;;;;;9.18;4.90;;;24.30;99.90;;;;;;5102269;28;20168;-80
2023/05/24 08:29:21;;;;;;;13.90;5.80;;;24.30;99.90;;;;;;5103287;28;20183;-75
2023/05/24 08:31:47;;;;;;;12.05;5.15;;;25.10;99.90;;;;;;5094796;28;20247;-77
2023/05/24 08:34:12;;;;;;;14.48;4.93;;;25.50;99.90;;;;;;5081183;28;20178;-76
2023/05/24 08:36:39;;;;;;;9.07;4.82;;;26.10;99.90;;;;;;5109026;28;20263;-76
2023/05/24 08:39:05;;;;;;;11.30;4.93;;;26.60;99.90;;;;;;5106707;28;20215;-78
2023/05/24 08:41:36;;;;;;;12.43;5.47;;;26.70;99.90;;;;;;5099601;28;20175;-75
2023/05/24 08:44:06;;;;;;;18.08;5.85;;;26.00;99.90;;;;;;5112284;28;20177;-74
2023/05/24 08:46:35;;;;;;;10.50;6.03;;;24.50;99.90;;;;;;5099790;28;20416;-71
2023/05/24 08:49:06;;;;;;;13.30;5.65;;;23.10;1.00;;;;;;5105471;28;20180;-70
2023/05/24 08:51:32;;;;;;;13.02;5.88;;;21.20;99.90;;;;;;5110041;28;20175;-71
2023/05/24 08:53:59;;;;;;;11.60;5.50;;;21.70;99.90;;;;;;5098541;28;20168;-71
2023/05/24 08:56:25;;;;;;;12.82;5.72;;;23.00;1.00;;;;;;5110111;28;20164;-71
2023/05/24 08:58:53;;;;;;;10.95;6.05;;;24.70;1.00;;;;;;5104131;28;20242;-71
2023/05/24 09:01:19;;;;;;;13.93;6.00;;;25.40;99.90;;;;;;5102184;28;20626;-72
2023/05/24 09:03:46;;;;;;;9.77;6.25;;;25.30;99.90;;;;;;5111527;28;20252;-72
2023/05/24 09:06:15;;;;;;;15.65;6.53;;;24.60;99.90;;;;;;5098395;28;20171;-72
2023/05/24 09:08:42;;;;;;;17.60;6.90;;;24.10;1.00;;;;;;5107079;28;20251;-71
2023/05/24 09:11:08;;;;;;;14.38;7.00;;;24.40;1.00;;;;;;5104312;28;20195;-71
2023/05/24 09:13:34;;;;;;;14.70;7.25;;;25.30;99.90;;;;;;5115328;28;20182;-71
2023/05/24 09:16:01;;;;;;;17.38;7.10;;;26.30;99.90;;;;;;5114568;28;20523;-71
2023/05/24 09:18:27;;;;;;;13.15;6.97;;;27.30;99.90;;;;;;5109107;28;20204;-71
2023/05/24 09:20:53;;;;;;;16.25;7.40;;;27.70;99.90;;;;;;5093125;28;20622;-72
2023/05/24 09:23:18;;;;;;;14.80;7.22;;;28.50;99.90;;;;;;5107119;28;20254;-71
2023/05/24 09:25:45;;;;;;;16.48;7.18;;;29.20;99.90;;;;;;5097643;28;20533;-71
2023/05/24 09:28:13;;;;;;;12.85;6.32;;;29.80;99.90;;;;;;5108020;28;20186;-72
2023/05/24 09:30:56;;;;;;;15.00;8.00;;;28.90;99.90;;;;;;5082283;28;20259;-73
2023/05/24 09:33:22;;;;;;;13.70;7.05;;;28.00;99.90;;;;;;5107134;28;20206;-72
2023/05/24 09:35:48;;;;;;;16.17;7.68;;;28.30;99.90;;;;;;5114461;28;20258;-72
2023/05/24 09:38:17;;;;;;;12.43;7.80;;;29.30;99.90;;;;;;5097485;28;20779;-73
2023/05/24 09:40:43;;;;;;;12.50;8.52;;;29.00;99.90;;;;;;5106349;28;20230;-71
2023/05/24 09:43:09;;;;;;;12.88;8.10;;;25.90;99.90;;;;;;5105931;28;20171;-71
2023/05/24 09:45:48;;;;;;;14.40;8.52;;;25.10;99.90;;;;;;5098166;28;20182;-70
2023/05/24 09:48:16;;;;;;;16.02;9.65;;;24.80;99.90;;;;;;5080046;28;20243;-70
2023/05/24 09:50:44;;;;;;;17.08;9.82;;;25.30;99.90;;;;;;5114032;28;20167;-70
2023/05/24 09:53:10;;;;;;;17.38;9.02;;;24.00;99.90;;;;;;5102551;28;20565;-70
2023/05/24 09:55:37;;;;;;;14.18;8.48;;;23.30;1.00;;;;;;5094097;28;20218;-69
2023/05/24 09:58:07;;;;;;;14.13;8.85;;;22.20;1.00;;;;;;5093925;28;20211;-70
2023/05/24 10:00:39;;;;;;;12.05;8.90;;;21.80;99.90;;;;;;5093741;28;20156;-69
2023/05/24 10:03:07;;;;;;;18.15;9.20;;;20.60;1.00;;;;;;5093910;28;20190;-69
2023/05/24 10:05:34;;;;;;;21.88;9.77;;;20.60;1.00;;;;;;5093154;28;20678;-69
2023/05/24 10:08:00;;;;;;;17.95;9.10;;;19.60;1.00;;;;;;5093550;28;20479;-69
2023/05/24 10:10:28;;;;;;;21.38;9.05;;;19.70;99.90;;;;;;5092230;28;20573;-69
2023/05/24 10:12:55;;;;;;;18.55;8.48;;;19.40;1.00;;;;;;5093865;28;20183;-70
2023/05/24 10:15:21;;;;;;;12.65;8.35;;;20.10;1.00;;;;;;5092396;28;20179;-70
2023/05/24 10:17:47;;;;;;;21.65;8.88;;;20.90;99.90;;;;;;5093098;28;20203;-71
2023/05/24 10:20:13;;;;;;;13.20;8.13;;;21.00;1.00;;;;;;5093919;28;20182;-69
2023/05/24 10:22:46;;;;;;;14.13;8.00;;;20.30;99.90;;;;;;5093785;28;20175;-70
2023/05/24 10:25:22;;;;;;;15.40;7.90;;;19.50;99.90;;;;;;5092897;28;20171;-70
2023/05/24 10:27:56;;;;;;;14.75;7.25;;;19.90;99.90;;;;;;5093394;28;20155;-70
2023/05/24 10:30:36;;;;;;;13.57;6.82;;;20.30;1.00;;;;;;5093775;28;20179;-70
2023/05/24 10:33:05;;;;;;;18.33;7.60;;;20.00;99.90;;;;;;5093108;28;20306;-70
2023/05/24 10:35:32;;;;;;;15.57;7.07;;;19.50;1.00;;;;;;5093725;28;20172;-69
2023/05/24 10:37:58;;;;;;;14.93;7.07;;;19.30;99.90;;;;;;5093516;28;20287;-69
2023/05/24 10:40:25;;;;;;;14.52;6.85;;;19.80;1.00;;;;;;5093734;28;20248;-70
2023/05/24 10:42:53;;;;;;;16.13;7.43;;;20.90;99.90;;;;;;5093055;28;20275;-70
2023/05/24 10:45:25;;;;;;;16.30;7.03;;;22.20;1.00;;;;;;5093448;28;20255;-71
2023/05/24 10:47:52;;;;;;;10.68;6.18;;;23.40;1.00;;;;;;5093196;28;20502;-71
2023/05/24 10:50:19;;;;;;;7.60;4.75;;;24.80;1.00;;;;;;5093819;28;20256;-70
2023/05/24 10:52:44;;;;;;;10.05;5.00;;;25.30;99.90;;;;;;5092876;28;20209;-71
2023/05/24 10:55:10;;;;;;;9.50;4.90;;;25.50;99.90;;;;;;5092571;28;20684;-70
2023/05/24 10:57:37;;;;;;;12.82;5.07;;;25.60;99.90;;;;;;5092708;28;20629;-70
2023/05/24 11:00:24;;;;;;;8.57;4.70;;;26.10;99.90;;;;;;5092745;28;20587;-68
2023/05/24 11:02:50;;;;;;;9.73;5.50;;;25.80;99.90;;;;;;5092950;28;20249;-71
2023/05/24 11:05:17;;;;;;;11.68;5.70;;;25.40;99.90;;;;;;5091670;28;20192;-70
2023/05/24 11:07:43;;;;;;;10.65;5.15;;;23.50;99.90;;;;;;5092217;28;20175;-70
2023/05/24 11:10:14;;;;;;;12.07;5.25;;;21.50;99.90;;;;;;5092425;28;20171;-69
2023/05/24 11:12:40;;;;;;;10.25;4.72;;;22.20;99.90;;;;;;5092562;28;20699;-70
2023/05/24 11:15:08;;;;;;;9.32;4.78;;;23.30;1.00;;;;;;5093434;28;20171;-71
2023/05/24 11:18:16;;;;;;;12.68;5.72;;;24.50;99.90;;;;;;5092612;28;20187;-71
2023/05/24 11:20:44;;;;;;;11.93;4.72;;;25.50;99.90;;;;;;5093275;28;20206;-70
2023/05/24 11:23:10;;;;;;;7.05;4.45;;;24.60;99.90;;;;;;5092445;28;20179;-70
2023/05/24 11:25:37;;;;;;;7.45;4.28;;;24.30;99.90;;;;;;5092664;28;20620;-70
2023/05/24 11:28:07;;;;;;;10.65;4.40;;;24.70;99.90;;;;;;5092219;28;20184;-71
2023/05/24 11:30:37;;;;;;;7.47;4.60;;;24.50;99.90;;;;;;5092951;28;20661;-70
2023/05/24 11:33:03;;;;;;;9.73;4.65;;;21.70;1.00;;;;;;5092075;28;20272;-71
2023/05/24 11:35:28;;;;;;;10.38;4.60;;;21.00;99.90;;;;;;5092724;28;20160;-71
2023/05/24 11:37:56;;;;;;;6.93;4.20;;;21.50;1.00;;;;;;5092380;28;20306;-69
2023/05/24 11:40:22;;;;;;;13.05;4.97;;;22.10;1.00;;;;;;5092493;28;20172;-70
2023/05/24 11:42:49;;;;;;;9.77;4.80;;;22.20;1.00;;;;;;5092489;28;20176;-71
2023/05/24 11:45:17;;;;;;;11.55;5.28;;;22.90;1.00;;;;;;5089379;28;20599;-72
2023/05/24 11:47:43;;;;;;;10.80;4.50;;;23.40;99.90;;;;;;5086697;28;20258;-69
2023/05/24 11:50:09;;;;;;;8.60;4.80;;;23.40;99.90;;;;;;5100263;28;20606;-69
2023/05/24 11:52:39;;;;;;;9.10;4.38;;;23.30;99.90;;;;;;5100269;28;20179;-69
2023/05/24 11:55:06;;;;;;;9.13;4.53;;;22.50;99.90;;;;;;5108458;28;20178;-70
2023/05/24 11:57:42;;;;;;;8.85;4.32;;;20.30;99.90;;;;;;5107850;28;20184;-69
2023/05/24 12:00:15;;;;;;;8.85;4.13;;;19.90;1.00;;;;;;5100454;28;20171;-69
2023/05/24 12:02:41;;;;;;;10.50;4.72;;;20.30;1.00;;;;;;5099660;28;20258;-70
2023/05/24 12:05:08;;;;;;;10.45;5.18;;;21.30;99.90;;;;;;5108580;28;20276;-71
2023/05/24 12:07:35;;;;;;;10.60;4.68;;;22.30;1.00;;;;;;5100345;28;20175;-70
2023/05/24 12:10:02;;;;;;;7.32;4.30;;;23.10;1.00;;;;;;5108262;28;20191;-70
2023/05/24 12:12:27;;;;;;;7.03;4.82;;;22.40;1.00;;;;;;5107134;28;20163;-70
2023/05/24 12:14:55;;;;;;;10.63;4.75;;;21.90;1.00;;;;;;5116182;28;20185;-72
2023/05/24 12:17:21;;;;;;;6.68;4.70;;;22.10;1.00;;;;;;5096746;28;20251;-68
2023/05/24 12:19:50;;;;;;;9.77;4.70;;;21.90;1.00;;;;;;5096070;28;20206;-70
2023/05/24 12:22:16;;;;;;;10.00;4.93;;;21.30;99.90;;;;;;5095741;28;20216;-70
2023/05/24 12:24:41;;;;;;;12.18;4.88;;;21.40;99.90;;;;;;5094623;28;20172;-70
2023/05/24 12:27:08;;;;;;;9.88;4.85;;;21.60;1.00;;;;;;5111909;28;20175;-70
2023/05/24 12:29:39;;;;;;;11.18;4.60;;;21.60;1.00;;;;;;5111959;28;20168;-69
2023/05/24 12:32:10;;;;;;;10.30;4.60;;;21.80;1.00;;;;;;5095560;28;20224;-69
2023/05/24 12:34:36;;;;;;;9.45;4.07;;;21.50;1.00;;;;;;5107837;28;20179;-69
2023/05/24 12:37:02;;;;;;;10.23;4.38;;;21.70;1.00;;;;;;5099846;28;20176;-68
2023/05/24 12:39:33;;;;;;;10.27;5.22;;;21.70;1.00;;;;;;5094479;28;20219;-68
2023/05/24 12:42:02;;;;;;;8.90;4.47;;;22.00;1.00;;;;;;5102676;28;20167;-68
2023/05/24 12:44:35;;;;;;;7.85;4.47;;;21.80;1.00;;;;;;5103975;28;20167;-67